createdAt,value
2019-03-23T00:01:50.556Z,10.20
2019-03-23T00:06:57.023Z,10.10
2019-03-23T00:12:03.352Z,10.00
2019-03-23T00:17:09.801Z,9.90
2019-03-23T00:22:16.252Z,9.90
2019-03-23T00:27:22.604Z,9.80
2019-03-23T00:32:29.386Z,9.80
2019-03-23T00:37:35.758Z,9.70
2019-03-23T00:42:42.650Z,9.70
2019-03-23T00:47:49.501Z,9.70
2019-03-23T00:52:55.752Z,9.70
2019-03-23T00:58:01.991Z,9.60
2019-03-23T01:03:08.259Z,9.60
2019-03-23T01:08:14.649Z,9.50
2019-03-23T01:13:20.894Z,9.40
2019-03-23T01:18:27.176Z,9.40
2019-03-23T01:23:33.573Z,9.30
2019-03-23T01:28:39.946Z,9.20
2019-03-23T01:33:46.220Z,9.20
2019-03-23T01:38:52.439Z,9.10
2019-03-23T01:43:58.692Z,9.00
2019-03-23T01:49:04.921Z,8.90
2019-03-23T01:54:11.854Z,8.90
2019-03-23T01:59:18.124Z,8.80
2019-03-23T02:04:24.372Z,8.80
2019-03-23T02:09:31.007Z,8.70
2019-03-23T02:14:37.582Z,8.70
2019-03-23T02:19:43.883Z,8.60
2019-03-23T02:24:50.236Z,8.60
2019-03-23T02:29:56.841Z,8.60
2019-03-23T02:35:03.059Z,8.50
2019-03-23T02:40:09.895Z,8.50
2019-03-23T02:45:16.419Z,8.50
2019-03-23T02:50:22.781Z,8.40
2019-03-23T02:55:29.211Z,8.40
2019-03-23T03:00:35.593Z,8.30
2019-03-23T03:05:41.933Z,8.20
2019-03-23T03:10:48.373Z,8.20
2019-03-23T03:15:54.620Z,8.00
2019-03-23T03:21:00.981Z,7.90
2019-03-23T03:26:07.394Z,8.00
2019-03-23T03:31:13.752Z,8.20
2019-03-23T03:36:20.026Z,8.30
2019-03-23T03:41:26.301Z,8.40
2019-03-23T03:46:32.502Z,8.60
2019-03-23T03:51:38.726Z,8.60
2019-03-23T03:56:44.957Z,8.50
2019-03-23T04:01:51.194Z,8.40
2019-03-23T04:06:57.427Z,8.40
2019-03-23T04:12:03.985Z,8.30
2019-03-23T04:17:10.316Z,8.30
2019-03-23T04:22:16.573Z,8.40
2019-03-23T04:27:22.903Z,8.40
2019-03-23T04:32:29.268Z,8.40
2019-03-23T04:37:35.565Z,8.50
2019-03-23T04:42:41.874Z,8.50
2019-03-23T04:47:49.843Z,8.50
2019-03-23T04:52:56.143Z,8.60
2019-03-23T04:58:02.456Z,8.70
2019-03-23T05:03:08.735Z,8.60
2019-03-23T05:08:15.017Z,8.60
2019-03-23T05:13:21.271Z,8.70
2019-03-23T05:18:27.519Z,8.70
2019-03-23T05:23:33.958Z,8.80
2019-03-23T05:28:40.350Z,8.90
2019-03-23T05:33:46.606Z,8.90
2019-03-23T05:38:52.837Z,8.90
2019-03-23T05:43:59.132Z,8.90
2019-03-23T05:49:05.360Z,9.00
2019-03-23T05:54:11.622Z,9.00
2019-03-23T05:59:17.880Z,9.00
2019-03-23T06:04:24.099Z,9.00
2019-03-23T06:09:30.321Z,9.00
2019-03-23T06:14:36.642Z,9.10
2019-03-23T06:19:42.939Z,9.10
2019-03-23T06:24:49.220Z,9.20
2019-03-23T06:29:55.450Z,9.20
2019-03-23T06:35:01.756Z,9.30
2019-03-23T06:40:09.028Z,9.30
2019-03-23T06:45:15.248Z,9.40
2019-03-23T06:50:21.656Z,9.30
2019-03-23T06:55:27.921Z,9.40
2019-03-23T07:00:34.321Z,9.40
2019-03-23T07:05:40.703Z,9.40
2019-03-23T07:10:47.040Z,9.40
2019-03-23T07:15:53.634Z,9.50
2019-03-23T07:20:59.934Z,9.50
2019-03-23T07:26:06.245Z,9.50
2019-03-23T07:31:12.589Z,9.50
2019-03-23T07:36:18.809Z,9.60
2019-03-23T07:41:25.057Z,9.60
2019-03-23T07:46:31.304Z,9.70
2019-03-23T07:51:37.532Z,9.70
2019-03-23T07:56:43.805Z,9.80
2019-03-23T08:01:50.108Z,9.80
2019-03-23T08:06:56.398Z,9.90
2019-03-23T08:12:02.661Z,9.90
2019-03-23T08:17:08.898Z,9.90
2019-03-23T08:22:15.251Z,10.00
2019-03-23T08:27:21.526Z,10.00
2019-03-23T08:32:27.889Z,10.10
2019-03-23T08:37:34.126Z,10.20
2019-03-23T08:42:40.401Z,10.30
2019-03-23T08:47:46.647Z,10.50
2019-03-23T08:52:53.260Z,10.70
2019-03-23T08:57:59.608Z,10.90
2019-03-23T09:03:06.185Z,11.20
2019-03-23T09:08:12.553Z,11.50
2019-03-23T09:13:18.850Z,11.70
2019-03-23T09:18:25.174Z,12.00
2019-03-23T09:23:31.417Z,12.20
2019-03-23T09:28:37.733Z,12.50
2019-03-23T09:33:44.021Z,12.80
2019-03-23T09:38:50.407Z,13.10
2019-03-23T09:43:56.667Z,13.50
2019-03-23T09:49:03.036Z,13.80
2019-03-23T09:54:09.308Z,14.10
2019-03-23T09:59:15.576Z,14.20
2019-03-23T10:04:21.940Z,14.40
2019-03-23T10:09:28.297Z,14.50
2019-03-23T10:14:34.535Z,14.50
2019-03-23T10:19:40.791Z,14.50
2019-03-23T10:24:47.013Z,14.50
2019-03-23T10:29:53.283Z,14.50
2019-03-23T10:34:59.568Z,14.50
2019-03-23T10:40:08.294Z,14.60
2019-03-23T10:45:14.546Z,14.50
2019-03-23T10:50:20.764Z,14.60
2019-03-23T10:55:26.991Z,14.60
2019-03-23T11:00:33.253Z,14.70
2019-03-23T11:05:39.560Z,14.60
2019-03-23T11:10:45.775Z,14.50
2019-03-23T11:15:52.060Z,14.50
2019-03-23T11:21:00.114Z,14.60
2019-03-23T11:26:06.429Z,14.50
2019-03-23T11:31:12.685Z,14.30
2019-03-23T11:36:18.951Z,14.20
2019-03-23T11:41:25.179Z,14.20
2019-03-23T11:46:31.461Z,14.10
2019-03-23T11:51:37.670Z,14.00
2019-03-23T11:56:43.994Z,13.90
2019-03-23T12:01:51.948Z,13.90
2019-03-23T12:06:58.243Z,14.00
2019-03-23T12:12:04.592Z,14.40
2019-03-23T12:17:10.949Z,14.80
2019-03-23T12:22:17.177Z,15.00
2019-03-23T12:27:24.774Z,15.20
2019-03-23T12:32:31.287Z,15.00
2019-03-23T12:37:37.542Z,14.70
2019-03-23T12:42:43.923Z,14.50
2019-03-23T12:47:52.725Z,14.80
2019-03-23T12:52:59.010Z,15.60
2019-03-23T12:58:05.255Z,16.20
2019-03-23T13:03:11.610Z,16.30
2019-03-23T13:08:17.833Z,16.60
2019-03-23T13:13:24.089Z,16.70
2019-03-23T13:18:30.382Z,16.60
2019-03-23T13:23:36.623Z,16.10
2019-03-23T13:28:42.949Z,15.70
2019-03-23T13:33:49.182Z,15.70
2019-03-23T13:38:55.484Z,15.80
2019-03-23T13:44:01.795Z,16.10
2019-03-23T13:49:08.068Z,15.90
2019-03-23T13:54:14.314Z,15.90
2019-03-23T13:59:20.538Z,15.70
2019-03-23T14:04:27.018Z,15.60
2019-03-23T14:09:33.343Z,15.60
2019-03-23T14:14:39.627Z,15.30
2019-03-23T14:19:45.952Z,15.20
2019-03-23T14:24:52.185Z,15.40
2019-03-23T14:29:58.433Z,15.50
2019-03-23T14:35:04.993Z,15.30
2019-03-23T14:40:11.384Z,15.40
2019-03-23T14:45:17.718Z,15.20
2019-03-23T14:50:24.076Z,15.10
2019-03-23T14:55:30.340Z,15.20
2019-03-23T15:00:36.687Z,15.30
2019-03-23T15:05:42.936Z,15.40
2019-03-23T15:10:49.184Z,15.50
2019-03-23T15:15:55.454Z,15.50
2019-03-23T15:21:01.699Z,15.30
2019-03-23T15:26:07.956Z,15.20
2019-03-23T15:31:14.263Z,15.30
2019-03-23T15:36:20.561Z,15.20
2019-03-23T15:41:26.783Z,14.90
2019-03-23T15:46:33.062Z,14.70
2019-03-23T15:51:39.306Z,14.60
2019-03-23T15:56:45.558Z,14.60
2019-03-23T16:01:52.807Z,14.50
2019-03-23T16:06:59.416Z,14.40
2019-03-23T16:12:06.150Z,14.30
2019-03-23T16:17:12.722Z,14.20
2019-03-23T16:22:19.045Z,14.00
2019-03-23T16:27:25.343Z,13.90
2019-03-23T16:32:32.227Z,13.90
2019-03-23T16:37:38.634Z,13.80
2019-03-23T16:42:45.854Z,13.70
2019-03-23T16:47:52.208Z,13.60
2019-03-23T16:52:58.510Z,13.50
2019-03-23T16:58:04.785Z,13.40
2019-03-23T17:03:11.024Z,13.20
2019-03-23T17:08:17.273Z,13.10
2019-03-23T17:13:23.580Z,13.10
2019-03-23T17:18:30.102Z,13.00
2019-03-23T17:23:36.397Z,13.00
2019-03-23T17:28:42.744Z,13.00
2019-03-23T17:33:49.030Z,12.90
2019-03-23T17:38:55.415Z,12.80
2019-03-23T17:44:01.675Z,12.80
2019-03-23T17:49:07.980Z,12.70
2019-03-23T17:54:14.233Z,12.70
2019-03-23T17:59:20.480Z,12.60
2019-03-23T18:04:26.767Z,12.60
2019-03-23T18:09:33.029Z,12.60
2019-03-23T18:14:44.230Z,12.50
2019-03-23T18:19:50.507Z,12.50
2019-03-23T18:24:56.863Z,12.50
2019-03-23T18:30:03.152Z,12.40
2019-03-23T18:35:09.394Z,12.40
2019-03-23T18:40:15.660Z,12.40
2019-03-23T18:45:21.879Z,12.40
2019-03-23T18:50:28.322Z,12.40
2019-03-23T18:55:34.617Z,12.40
2019-03-23T19:00:42.888Z,12.40
2019-03-23T19:05:49.171Z,12.30
2019-03-23T19:10:55.549Z,12.30
2019-03-23T19:16:01.773Z,12.30
2019-03-23T19:21:07.996Z,12.30
2019-03-23T19:26:14.300Z,12.20
2019-03-23T19:31:20.596Z,12.20
2019-03-23T19:36:26.862Z,12.20
2019-03-23T19:41:33.125Z,12.20
2019-03-23T19:46:39.366Z,12.20
2019-03-23T19:51:45.661Z,12.20
2019-03-23T19:56:52.006Z,12.20
2019-03-23T20:01:58.370Z,12.20
2019-03-23T20:07:04.674Z,12.10
2019-03-23T20:12:10.896Z,12.10
2019-03-23T20:17:17.117Z,12.10
2019-03-23T20:22:23.552Z,12.10
2019-03-23T20:27:29.800Z,12.10
2019-03-23T20:32:36.036Z,12.00
2019-03-23T20:37:42.284Z,12.00
2019-03-23T20:42:48.648Z,12.00
2019-03-23T20:47:54.882Z,12.00
2019-03-23T20:53:01.133Z,11.90
2019-03-23T20:58:07.418Z,11.90
2019-03-23T21:03:13.682Z,11.80
2019-03-23T21:08:19.927Z,11.80
2019-03-23T21:13:26.184Z,11.90
2019-03-23T21:18:32.520Z,11.80
2019-03-23T21:23:38.776Z,11.80
2019-03-23T21:28:45.059Z,11.80
2019-03-23T21:33:51.402Z,11.70
2019-03-23T21:38:57.880Z,11.60
2019-03-23T21:44:04.195Z,11.60
2019-03-23T21:49:10.545Z,11.50
2019-03-23T21:54:16.960Z,11.40
2019-03-23T21:59:25.410Z,11.30
2019-03-23T22:04:31.191Z,11.30
2019-03-23T22:09:37.571Z,11.20
2019-03-23T22:14:43.873Z,11.10
2019-03-23T22:19:50.133Z,11.00
2019-03-23T22:24:56.379Z,10.90
2019-03-23T22:30:02.640Z,10.90
2019-03-23T22:35:08.962Z,10.80
2019-03-23T22:40:15.247Z,10.80
2019-03-23T22:45:21.604Z,10.80
2019-03-23T22:50:27.872Z,10.70
2019-03-23T22:55:34.166Z,10.70
2019-03-23T23:00:43.131Z,10.80
2019-03-23T23:05:49.443Z,10.70
2019-03-23T23:10:55.781Z,10.80
2019-03-23T23:16:02.066Z,10.80
2019-03-23T23:21:08.309Z,10.80
2019-03-23T23:26:14.563Z,10.90
2019-03-23T23:31:20.824Z,10.90
2019-03-23T23:36:27.036Z,10.90
2019-03-23T23:41:33.312Z,11.00
2019-03-23T23:46:39.563Z,11.00
2019-03-23T23:51:50.159Z,11.10
2019-03-23T23:56:53.851Z,11.10
